サンホセ/フアン・サンタ・マリア の空港の天気 - METARとTAF

フアン・サンタ・マリア国際空港 ( MROC / SJO ) - コスタリカ サンホセ
飛行場実況気象(Metar)
観測時間08/25 13:00 CST (08/25 19:00 UTC)
風向・風速西南西 5m/s
視程10km以上
天気現象
全天の4割程度の雲 雲底高度 610m
全天の4割程度の雲 雲底高度 1370m
全天の8割程度の雲 雲底高度 3050m
気温26℃
湿度79%
気圧1015hPa
METARMROC 251900Z 25009KT 9999 SCT020TCU SCT045 BKN100 26/22 A2998 RERA NOSIG
過去の天気等 Google飛行場航空写真 Wunderground天気予報

過去48時間のMETAR

飛行場予報(TAF)
発表時間: 8/25 11:00 CST (8/25 17:00 UTC)
予報対象時間: 25日12時 CST ~ 26日12時 CST
風向・風速東 4m/s
視程10km以上
少しの雲 雲底高度 1220m
25日12時 CST ~ 25日14時 CST に徐々に
風向・風速西南西 4m/s
25日15時 CST ~ 25日18時 CST に一時的に
天気現象雷雨
少しの積乱雲 雲底高度 460m
全天の8割程度の雲 雲底高度 910m
25日20時 CST ~ 25日22時 CST に徐々に
風向・風速東北東 3m/s
26日10時 CST ~ 26日12時 CST に徐々に
風向・風速南西 3m/s
MROC 251700Z 2518/2618 08007KT 9999 FEW040 TX30/2519Z TN19/2610Z
BECMG 2518/2520 24008KT
TEMPO 2521/2524 TSRA FEW015CB BKN030
BECMG 2602/2604 06005KT
BECMG 2616/2618 23006KT